ADDS METAR Data INFO
IDs: Format: Raw Decoded Include TAF

Data at: 0924 UTC 17 Oct 2017

PAFA 170853Z 17003KT 5SM -SN BR SCT015 BKN025 OVC050 M02/M02 A2957 RMK AO2 SLP023 P0000 60000 T10171022 410061033 56008 $
PAFA 170753Z 00000KT 5SM -SN BR FEW015 BKN025 OVC065 M02/M02 A2958 RMK AO2 SLP025 P0000 T10221022 $
PAFA 170653Z 18004KT 4SM -SN BR SCT027 OVC044 M02/M02 A2959 RMK AO2 SLP028 P0000 T10221022 $
PAFA 170553Z 18004KT 3SM -SN BR SCT027 BKN033 OVC044 M02/M02 A2960 RMK AO2 SLP031 P0001 60002 T10221022 11006 21022 56003 $
PAFA 170551Z 18003KT 3SM -SN BR SCT027 BKN033 OVC044 M02/M02 A2960 RMK AO2 P0001 $
PAFA 170453Z 16004KT 3SM -SN BR BKN025 OVC044 M02/M03 A2960 RMK AO2 SFC VIS 6 SLP033 P0000 T10171028 $
PAFA 170429Z 18004KT 3SM R02L/6000VP6000FT -SN BR BKN025 OVC044 M02/M03 A2961 RMK AO2 P0000 T10221028 $
PAFA 170424Z 17004KT 1 1/2SM R02L/6000VP6000FT -SN BR BKN025 OVC044 M02/M03 A2961 RMK AO2 TWR VIS 3 P0000 T10171028 $
PAFA 170416Z 18004KT 2SM -SN BR BKN025 OVC044 M02/M03 A2961 RMK AO2 TWR VIS 3 P0000 T10171028 $
PAFA 170353Z 19003KT 3SM -SN BR SCT025 OVC044 M02/M03 A2961 RMK AO2 SFC VIS 4 SLP034 P0000 T10171028 $
PAFA 170301Z 20004KT 3SM -SN BR FEW014 BKN030 OVC047 M02/M03 A2961 RMK AO2 P0000 T10221033 $
PAFA 170251Z 20004KT 1 1/2SM -SN BR FEW014 BKN047 OVC065 M02/M03 A2961 RMK AO2 TWR VIS 2 P0001
PAFA 170153Z 21005KT 5SM -SN FEW014 BKN047 OVC065 M02/M04 A2962 RMK AO2 SLP038 P0000 T10171039
PAFA 170053Z 25005KT 6SM -SN FEW014 SCT039 OVC047 M01/M04 A2962 RMK AO2 SLP041 P0000 T10111044
PAFA 162353Z 22003KT 6SM -SN FEW014 OVC040 M01/M04 A2963 RMK AO2 SNB39 SLP042 P0000 60000 T10061044 11006 21028 50000
PAFA 162253Z 20004KT 10SM FEW018 BKN041 BKN200 M01/M03 A2963 RMK AO2 SLP043 T10061033
PAFA 162153Z 00000KT 10SM FEW009 SCT018 BKN046 BKN200 M02/M03 A2963 RMK AO2 SNE43 SLP043 P0000 T10171033
PAFA 162149Z 00000KT 10SM FEW009 SCT018 BKN046 BKN200 M02/M03 A2963 RMK AO2 SNE43 P0000
PAFA 162100Z 19005KT 10SM -SN FEW009 BKN018 BKN049 BKN200 M02/M03 A2963 RMK AO2 P0000 T10221033
PAFA 162053Z 20004KT 10SM -SN SCT007 BKN047 BKN200 M02/M03 A2963 RMK AO2 SLP042 P0000 60000 T10221033 51009
PAFA 161953Z 19006KT 10SM -SN SCT007 BKN047 BKN200 M03/M04 A2962 RMK AO2 SNB49 SLP039 P0000 T10281039
PAFA 161853Z 20005KT 10SM FEW014 SCT047 BKN075 BKN200 M03/M04 A2961 RMK AO2 SLP037 T10281039
PAFA 161820Z 20004KT 10SM FEW014 SCT034 BKN075 M03/M04 A2961 RMK AO2 T10281039
PAFA 161753Z 20005KT 10SM BKN014 BKN034 BKN100 M03/M04 A2960 RMK AO2 SLP033 T10281039 11017 21033 58001
PAFA 161653Z 20004KT 10SM BKN014 BKN040 M03/M04 A2961 RMK AO2 SLP035 T10331039
PAFA 161553Z 20004KT 10SM BKN012 BKN040 M03/M03 A2961 RMK AO2 SLP037 T10281033
PAFA 161453Z 00000KT 10SM BKN015 OVC040 M02/M04 A2961 RMK AO2 SLP034 T10221044 53003 $
PAFA 161425Z 35003KT 10SM BKN015 OVC040 M02/M05 A2960 RMK AO2 T10221050 $
PAFA 161353Z 35005KT 10SM SCT015 OVC040 M02/M05 A2960 RMK AO2 SLP032 T10221050 $
PAFA 161253Z 34006KT 10SM BKN040 M02/M05 A2960 RMK AO2 SLP030 T10221050 $
PAFA 161153Z 01006KT 10SM BKN040 M02/M05 A2960 RMK AO2 SLP030 T10171050 10000 21017 51004 $
PAFA 161053Z 01007KT 10SM BKN040 M02/M04 A2960 RMK AO2 SLP030 T10171044 $
PAFA 160953Z 34004KT 10SM BKN042 M01/M04 A2959 RMK AO2 SLP028 T10111039 $
PAFA 160853Z 35007KT 10SM BKN042 M01/M04 A2958 RMK AO2 SLP026 T10111039 400281011 53006 $
PAFA 160753Z 36006KT 10SM BKN041 M01/M04 A2957 RMK AO2 SLP021 T10061039 $
PAFA 160653Z 36005KT 10SM BKN041 M01/M03 A2957 RMK AO2 SLP021 T10061033 $
PAFA 160553Z 01006KT 10SM BKN041 00/M03 A2957 RMK AO2 SLP019 T00001033 10022 20000 53003 $
PAFA 160453Z 35006KT 10SM FEW020 BKN041 BKN065 01/M03 A2956 RMK AO2 SLP016 T00061033 $
PAFA 160353Z 35006KT 10SM FEW025 BKN043 BKN065 01/M03 A2955 RMK AO2 SLP016 T00061033 $
PAFA 160253Z 36007KT 10SM FEW028 BKN041 BKN065 01/M03 A2956 RMK AO2 SLP016 T00111028 55000 $
PAFA 160153Z 01004KT 10SM FEW028 BKN045 BKN070 01/M03 A2955 RMK AO2 SLP016 T00111028 $
PAFA 160053Z 35007KT 10SM BKN042 BKN060 BKN070 02/M03 A2955 RMK AO2 SLP015 VIRGA T00221028 $
PAFA 152353Z 34007KT 10SM SCT019 BKN046 BKN070 02/M02 A2956 RMK AO2 SLP016 T00221022 10028 20006 57001 $
PAFA 152253Z 35008KT 10SM SCT019 BKN044 02/M02 A2956 RMK AO2 SLP018 T00221017 $
PAFA 152153Z 36006KT 10SM SCT019 BKN044 03/M01 A2956 RMK AO2 SLP017 T00281011 $